createdAt,value
2022-12-27T00:01:30.138Z,100453.09
2022-12-27T00:03:57.821Z,100448.91
2022-12-27T00:06:25.565Z,100450.84
2022-12-27T00:08:53.177Z,100443.97
2022-12-27T00:11:20.835Z,100450.34
2022-12-27T00:13:49.119Z,100449.47
2022-12-27T00:16:16.775Z,100444.19
2022-12-27T00:18:44.422Z,100445.06
2022-12-27T00:21:12.082Z,100446.84
2022-12-27T00:23:39.710Z,100455.63
2022-12-27T00:26:07.864Z,100441.50
2022-12-27T00:28:35.578Z,100444.13
2022-12-27T00:31:03.166Z,100446.84
2022-12-27T00:33:30.852Z,100439.69
2022-12-27T00:35:58.519Z,100435.94
2022-12-27T00:38:26.525Z,100445.41
2022-12-27T00:40:54.502Z,100451.56
2022-12-27T00:43:22.201Z,100440.06
2022-12-27T00:45:49.875Z,100437.44
2022-12-27T00:48:17.552Z,100445.19
2022-12-27T00:50:45.825Z,100441.63
2022-12-27T00:53:13.500Z,100438.06
2022-12-27T00:55:41.129Z,100444.19
2022-12-27T00:58:09.146Z,100438.06
2022-12-27T01:00:36.771Z,100443.28
2022-12-27T01:03:06.118Z,100444.03
2022-12-27T01:05:33.758Z,100436.94
2022-12-27T01:08:01.404Z,100440.28
2022-12-27T01:10:28.993Z,100442.13
2022-12-27T01:12:56.615Z,100437.78
2022-12-27T01:15:24.634Z,100447.50
2022-12-27T01:17:52.258Z,100445.69
2022-12-27T01:20:19.904Z,100450.03
2022-12-27T01:22:47.499Z,100461.38
2022-12-27T01:25:15.469Z,100470.91
2022-12-27T01:27:43.336Z,100463.88
2022-12-27T01:30:10.908Z,100467.28
2022-12-27T01:32:38.502Z,100471.56
2022-12-27T01:35:06.125Z,100475.84
2022-12-27T01:37:33.742Z,100469.78
2022-12-27T01:40:01.946Z,100478.63
2022-12-27T01:42:46.890Z,100477.69
2022-12-27T01:45:14.547Z,100481.16
2022-12-27T01:47:42.183Z,100473.19
2022-12-27T01:50:10.117Z,100473.19
2022-12-27T01:52:37.713Z,100474.97
2022-12-27T01:55:05.306Z,100475.84
2022-12-27T01:57:33.019Z,100475.84
2022-12-27T02:00:00.621Z,100485.44
2022-12-27T02:02:28.835Z,100488.09
2022-12-27T02:04:56.492Z,100493.22
2022-12-27T02:07:24.379Z,100487.75
2022-12-27T02:09:51.982Z,100505.06
2022-12-27T02:12:19.641Z,100495.22
2022-12-27T02:14:47.793Z,100498.63
2022-12-27T02:17:15.371Z,100498.47
2022-12-27T02:19:43.017Z,100507.19
2022-12-27T02:22:10.637Z,100495.47
2022-12-27T02:24:37.186Z,100496.34
2022-12-27T02:27:05.172Z,100505.16
2022-12-27T02:29:33.149Z,100496.34
2022-12-27T02:32:00.779Z,100502.47
2022-12-27T02:34:28.398Z,100491.84
2022-12-27T02:36:55.955Z,100492.69
2022-12-27T02:39:24.177Z,100492.69
2022-12-27T02:42:09.125Z,100501.53
2022-12-27T02:44:54.116Z,100498.13
2022-12-27T02:47:39.019Z,100500.91
2022-12-27T02:50:24.165Z,100500.91
2022-12-27T02:53:08.132Z,100495.63
2022-12-27T02:55:35.791Z,100496.47
2022-12-27T02:58:02.351Z,100492.06
2022-12-27T03:00:59.164Z,100492.91
2022-12-27T03:03:28.931Z,100507.81
2022-12-27T03:06:10.309Z,100496.34
2022-12-27T03:08:37.924Z,100498.13
2022-12-27T03:11:23.696Z,100506.03
2022-12-27T03:14:08.669Z,100504.31
2022-12-27T03:16:38.020Z,100498.19
2022-12-27T03:19:05.620Z,100498.91
2022-12-27T03:21:50.925Z,100495.97
2022-12-27T03:24:35.816Z,100513.44
2022-12-27T03:27:03.453Z,100507.06
2022-12-27T03:29:47.824Z,100502.66
2022-12-27T03:32:33.339Z,100507.00
2022-12-27T03:35:00.990Z,100514.00
2022-12-27T03:37:46.337Z,100507.88
2022-12-27T03:40:14.131Z,100508.72
2022-12-27T03:42:59.596Z,100506.94
2022-12-27T03:45:47.181Z,100513.84
2022-12-27T03:48:13.741Z,100519.03
2022-12-27T03:50:41.557Z,100518.97
2022-12-27T03:53:09.879Z,100517.09
2022-12-27T03:55:37.483Z,100517.81
2022-12-27T03:58:05.070Z,100529.25
2022-12-27T04:00:32.665Z,100523.09
2022-12-27T04:03:00.439Z,100537.06
2022-12-27T04:05:28.449Z,100527.31
2022-12-27T04:08:14.023Z,100517.53
2022-12-27T04:10:59.064Z,100526.16
2022-12-27T04:13:44.280Z,100524.38
2022-12-27T04:16:29.457Z,100531.44
2022-12-27T04:19:14.415Z,100530.72
2022-12-27T04:21:59.298Z,100541.34
2022-12-27T04:24:44.135Z,100541.28
2022-12-27T04:27:29.360Z,100537.78
2022-12-27T04:30:14.222Z,100556.25
2022-12-27T04:32:59.185Z,100542.34
2022-12-27T04:35:28.791Z,100550.38
2022-12-27T04:37:56.819Z,100545.22
2022-12-27T04:40:41.710Z,100544.38
2022-12-27T04:43:26.718Z,100543.66
2022-12-27T04:46:11.799Z,100548.16
2022-12-27T04:48:57.032Z,100550.16
2022-12-27T04:51:42.168Z,100559.94
2022-12-27T04:54:27.146Z,100553.56
2022-12-27T04:56:56.117Z,100565.78
2022-12-27T04:59:41.019Z,100563.91
2022-12-27T05:02:08.715Z,100560.34
2022-12-27T05:04:36.358Z,100563.06
2022-12-27T05:07:23.967Z,100561.38
2022-12-27T05:10:09.114Z,100563.84
2022-12-27T05:12:54.078Z,100566.34
2022-12-27T05:15:21.645Z,100572.31
2022-12-27T05:17:49.381Z,100567.03
2022-12-27T05:20:17.374Z,100568.75
2022-12-27T05:23:02.568Z,100571.31
2022-12-27T05:25:37.161Z,100574.75
2022-12-27T05:28:04.947Z,100566.91
2022-12-27T05:30:32.911Z,100575.78
2022-12-27T05:33:00.539Z,100575.81
2022-12-27T05:35:28.099Z,100587.16
2022-12-27T05:37:56.192Z,100600.38
2022-12-27T05:40:23.969Z,100596.66
2022-12-27T05:42:51.526Z,100593.75
2022-12-27T05:45:19.157Z,100604.78
2022-12-27T05:47:46.780Z,100598.28
2022-12-27T05:50:14.422Z,100607.69
2022-12-27T05:52:42.251Z,100594.25
2022-12-27T05:55:10.187Z,100595.88
2022-12-27T05:57:37.744Z,100591.44
2022-12-27T06:00:05.721Z,100608.09
2022-12-27T06:02:33.379Z,100594.66
2022-12-27T06:05:01.201Z,100594.50
2022-12-27T06:07:29.151Z,100596.25
2022-12-27T06:09:56.745Z,100595.34
2022-12-27T06:12:24.353Z,100597.91
2022-12-27T06:14:51.933Z,100602.22
2022-12-27T06:17:19.570Z,100602.91
2022-12-27T06:19:51.169Z,100600.22
2022-12-27T06:22:21.899Z,100604.69
2022-12-27T06:24:49.443Z,100615.25
2022-12-27T06:27:17.067Z,100609.97
2022-12-27T06:29:44.879Z,100610.78
2022-12-27T06:32:12.895Z,100619.47
2022-12-27T06:34:40.494Z,100617.59
2022-12-27T06:37:08.116Z,100618.47
2022-12-27T06:39:35.699Z,100620.25
2022-12-27T06:42:03.308Z,100628.28
2022-12-27T06:44:31.254Z,100617.78
2022-12-27T06:46:58.973Z,100625.63
2022-12-27T06:49:26.836Z,100621.97
2022-12-27T06:51:59.468Z,100639.44
2022-12-27T06:54:27.896Z,100628.81
2022-12-27T06:56:56.780Z,100629.59
2022-12-27T06:59:24.407Z,100639.22
2022-12-27T07:01:52.138Z,100647.16
2022-12-27T07:04:19.909Z,100640.09
2022-12-27T07:06:49.449Z,100659.38
2022-12-27T07:09:17.427Z,100646.16
2022-12-27T07:11:45.708Z,100649.72
2022-12-27T07:14:13.294Z,100649.72
2022-12-27T07:16:40.972Z,100654.16
2022-12-27T07:19:08.990Z,100657.66
2022-12-27T07:21:36.922Z,100655.88
2022-12-27T07:24:04.532Z,100670.00
2022-12-27T07:26:32.154Z,100678.88
2022-12-27T07:29:00.212Z,100674.53
2022-12-27T07:31:29.779Z,100672.75
2022-12-27T07:33:58.052Z,100679.75
2022-12-27T07:36:25.601Z,100670.94
2022-12-27T07:38:53.193Z,100686.19
2022-12-27T07:41:20.805Z,100683.78
2022-12-27T07:43:48.657Z,100688.34
2022-12-27T07:46:16.379Z,100683.19
2022-12-27T07:48:43.990Z,100694.69
2022-12-27T07:51:11.610Z,100699.81
2022-12-27T07:53:39.184Z,100707.63
2022-12-27T07:56:07.154Z,100710.19
2022-12-27T07:58:35.442Z,100717.09
2022-12-27T08:01:03.171Z,100715.16
2022-12-27T08:03:31.009Z,100712.41
2022-12-27T08:05:58.610Z,100714.81
2022-12-27T08:08:26.258Z,100721.75
2022-12-27T08:10:54.280Z,100712.81
2022-12-27T08:13:22.282Z,100712.00
2022-12-27T08:15:49.926Z,100722.56
2022-12-27T08:18:17.618Z,100728.88
2022-12-27T08:20:45.495Z,100725.44
2022-12-27T08:23:13.528Z,100731.72
2022-12-27T08:25:48.348Z,100737.25
2022-12-27T08:28:16.666Z,100737.47
2022-12-27T08:30:44.479Z,100728.88
2022-12-27T08:33:12.458Z,100725.59
2022-12-27T08:35:56.076Z,100735.31
2022-12-27T08:38:23.809Z,100730.16
2022-12-27T08:40:51.479Z,100736.38
2022-12-27T08:43:19.344Z,100725.72
2022-12-27T08:45:47.095Z,100729.91
2022-12-27T08:48:15.496Z,100727.13
2022-12-27T08:50:43.148Z,100728.81
2022-12-27T08:53:10.876Z,100741.03
2022-12-27T08:55:38.732Z,100737.19
2022-12-27T08:58:13.794Z,100739.53
2022-12-27T09:00:43.567Z,100743.13
2022-12-27T09:03:11.267Z,100742.09
2022-12-27T09:05:41.947Z,100747.88
2022-12-27T09:08:10.461Z,100751.19
2022-12-27T09:10:38.085Z,100758.28
2022-12-27T09:13:05.801Z,100745.72
2022-12-27T09:15:33.537Z,100759.66
2022-12-27T09:18:03.270Z,100751.72
2022-12-27T09:20:31.342Z,100753.31
2022-12-27T09:22:59.137Z,100756.69
2022-12-27T09:25:26.860Z,100761.84
2022-12-27T09:27:54.926Z,100765.09
2022-12-27T09:30:22.908Z,100757.97
2022-12-27T09:32:50.927Z,100762.16
2022-12-27T09:35:18.535Z,100761.09
2022-12-27T09:37:46.829Z,100771.50
2022-12-27T09:40:14.585Z,100767.69
2022-12-27T09:42:53.514Z,100766.38
2022-12-27T09:45:30.769Z,100768.72
2022-12-27T09:47:58.441Z,100777.13
2022-12-27T09:50:26.178Z,100764.66
2022-12-27T09:52:54.297Z,100769.72
2022-12-27T09:55:22.027Z,100772.00
2022-12-27T09:57:51.212Z,100764.97
2022-12-27T10:00:19.817Z,100762.59
2022-12-27T10:03:03.007Z,100763.28
2022-12-27T10:05:30.786Z,100756.97
2022-12-27T10:07:58.953Z,100767.56
2022-12-27T10:10:26.707Z,100765.00
2022-12-27T10:12:54.648Z,100760.38
2022-12-27T10:15:22.403Z,100759.56
2022-12-27T10:17:53.416Z,100761.19
2022-12-27T10:20:22.046Z,100762.47
2022-12-27T10:22:49.841Z,100759.50
2022-12-27T10:25:17.573Z,100740.88
2022-12-27T10:27:46.912Z,100746.63
2022-12-27T10:30:14.597Z,100741.66
2022-12-27T10:32:42.623Z,100736.59
2022-12-27T10:35:10.707Z,100741.44
2022-12-27T10:37:38.592Z,100734.41
2022-12-27T10:40:08.352Z,100733.06
2022-12-27T10:42:38.396Z,100737.34
2022-12-27T10:45:06.539Z,100741.47
2022-12-27T10:47:34.357Z,100736.81
2022-12-27T10:50:02.297Z,100740.78
2022-12-27T10:52:30.465Z,100739.53
2022-12-27T10:54:58.259Z,100744.66
2022-12-27T10:57:26.706Z,100742.19
2022-12-27T10:59:54.615Z,100749.16
2022-12-27T11:02:22.927Z,100747.44
2022-12-27T11:04:51.200Z,100749.56
2022-12-27T11:07:19.070Z,100750.50
2022-12-27T11:09:50.996Z,100753.59
2022-12-27T11:12:19.312Z,100761.75
2022-12-27T11:14:47.231Z,100757.28
2022-12-27T11:17:15.444Z,100752.34
2022-12-27T11:19:43.371Z,100760.03
2022-12-27T11:22:12.012Z,100749.19
2022-12-27T11:24:40.354Z,100757.34
2022-12-27T11:27:08.344Z,100753.53
2022-12-27T11:29:36.253Z,100748.22
2022-12-27T11:32:04.045Z,100764.09
2022-12-27T11:34:32.013Z,100758.09
2022-12-27T11:36:59.813Z,100758.00
2022-12-27T11:39:28.346Z,100769.22
2022-12-27T11:41:56.604Z,100766.25
2022-12-27T11:44:24.430Z,100753.72
2022-12-27T11:46:58.589Z,100763.88
2022-12-27T11:49:27.254Z,100757.63
2022-12-27T11:51:55.598Z,100755.94
2022-12-27T11:54:23.637Z,100753.53
2022-12-27T11:56:51.621Z,100761.03
2022-12-27T11:59:19.895Z,100752.50
2022-12-27T12:01:47.715Z,100754.28
2022-12-27T12:04:15.731Z,100757.63
2022-12-27T12:06:45.579Z,100756.66
2022-12-27T12:09:13.336Z,100751.38
2022-12-27T12:11:41.558Z,100741.06
2022-12-27T12:14:09.327Z,100744.25
2022-12-27T12:16:37.138Z,100752.69
2022-12-27T12:19:06.208Z,100753.66
2022-12-27T12:21:34.077Z,100750.59
2022-12-27T12:24:02.448Z,100736.25
2022-12-27T12:26:31.009Z,100729.97
2022-12-27T12:29:00.276Z,100736.88
2022-12-27T12:31:29.301Z,100733.91
2022-12-27T12:33:57.217Z,100731.13
2022-12-27T12:36:25.503Z,100733.59
2022-12-27T12:38:53.388Z,100732.22
2022-12-27T12:41:21.438Z,100732.59
2022-12-27T12:43:49.212Z,100734.47
2022-12-27T12:46:16.982Z,100740.69
2022-12-27T12:48:44.921Z,100731.41
2022-12-27T12:51:12.723Z,100723.97
2022-12-27T12:53:40.666Z,100710.44
2022-12-27T12:56:09.022Z,100707.44
2022-12-27T12:58:36.786Z,100706.19
2022-12-27T13:01:05.117Z,100695.25
2022-12-27T13:03:33.149Z,100686.78
2022-12-27T13:06:00.984Z,100687.03
2022-12-27T13:08:28.743Z,100685.41
2022-12-27T13:10:56.666Z,100684.56
2022-12-27T13:13:25.580Z,100684.56
2022-12-27T13:15:53.436Z,100686.28
2022-12-27T13:18:26.616Z,100685.25
2022-12-27T13:20:57.852Z,100676.34
2022-12-27T13:23:26.100Z,100663.16
2022-12-27T13:25:54.028Z,100669.41
2022-12-27T13:28:21.934Z,100659.75
2022-12-27T13:30:50.115Z,100663.34
2022-12-27T13:33:18.334Z,100652.75
2022-12-27T13:35:46.733Z,100658.91
2022-12-27T13:38:14.744Z,100657.19
2022-12-27T13:40:42.496Z,100658.13
2022-12-27T13:43:10.271Z,100656.50
2022-12-27T13:45:38.925Z,100658.41
2022-12-27T13:48:07.163Z,100661.22
2022-12-27T13:50:35.013Z,100659.41
2022-12-27T13:53:03.087Z,100658.47
2022-12-27T13:55:31.411Z,100652.34
2022-12-27T13:57:59.165Z,100654.97
2022-12-27T14:00:27.273Z,100655.94
2022-12-27T14:02:55.077Z,100649.94
2022-12-27T14:05:23.344Z,100651.91
2022-12-27T14:07:51.312Z,100657.28
2022-12-27T14:10:19.455Z,100654.81
2022-12-27T14:12:47.561Z,100654.13
2022-12-27T14:15:15.499Z,100650.63
2022-12-27T14:17:43.398Z,100643.53
2022-12-27T14:20:11.252Z,100640.78
2022-12-27T14:22:39.586Z,100650.28
2022-12-27T14:25:07.357Z,100647.44
2022-12-27T14:27:35.253Z,100644.66
2022-12-27T14:30:03.054Z,100636.59
2022-12-27T14:32:30.868Z,100645.22
2022-12-27T14:34:59.895Z,100636.25
2022-12-27T14:37:28.716Z,100636.94
2022-12-27T14:39:56.535Z,100636.09
2022-12-27T14:42:24.419Z,100637.88
2022-12-27T14:44:52.557Z,100631.81
2022-12-27T14:47:20.824Z,100632.91
2022-12-27T14:49:48.970Z,100630.38
2022-12-27T14:52:17.014Z,100632.16
2022-12-27T14:54:44.924Z,100625.97
2022-12-27T14:57:12.794Z,100623.34
2022-12-27T14:59:42.532Z,100620.78
2022-12-27T15:02:10.538Z,100608.50
2022-12-27T15:04:38.467Z,100605.84
2022-12-27T15:07:06.483Z,100603.34
2022-12-27T15:09:34.404Z,100599.06
2022-12-27T15:12:02.504Z,100602.78
2022-12-27T15:14:30.946Z,100598.56
2022-12-27T15:16:58.647Z,100598.75
2022-12-27T15:19:26.352Z,100593.78
2022-12-27T15:21:54.669Z,100592.25
2022-12-27T15:24:22.852Z,100601.31
2022-12-27T15:26:51.039Z,100592.69
2022-12-27T15:29:18.987Z,100594.47
2022-12-27T15:31:46.946Z,100588.22
2022-12-27T15:34:14.760Z,100601.22
2022-12-27T15:36:42.997Z,100592.25
2022-12-27T15:39:11.054Z,100595.50
2022-12-27T15:41:38.918Z,100590.97
2022-12-27T15:44:07.300Z,100593.34
2022-12-27T15:46:36.623Z,100591.38
2022-12-27T15:49:04.894Z,100586.88
2022-12-27T15:51:33.280Z,100580.63
2022-12-27T15:54:01.016Z,100581.47
2022-12-27T15:56:28.818Z,100569.16
2022-12-27T15:58:56.763Z,100574.47
2022-12-27T16:01:26.160Z,100582.34
2022-12-27T16:03:54.300Z,100574.31
2022-12-27T16:06:22.384Z,100571.53
2022-12-27T16:08:50.304Z,100573.25
2022-12-27T16:11:18.103Z,100573.25
2022-12-27T16:13:46.313Z,100567.78
2022-12-27T16:16:14.487Z,100569.50
2022-12-27T16:18:42.331Z,100565.03
2022-12-27T16:21:10.276Z,100565.91
2022-12-27T16:23:38.114Z,100559.72
2022-12-27T16:26:06.097Z,100565.91
2022-12-27T16:28:34.350Z,100561.47
2022-12-27T16:31:02.215Z,100575.47
2022-12-27T16:33:31.382Z,100563.84
2022-12-27T16:35:59.336Z,100571.69
2022-12-27T16:38:27.541Z,100568.97
2022-12-27T16:40:55.736Z,100561.97
2022-12-27T16:43:23.600Z,100570.66
2022-12-27T16:45:51.529Z,100560.94
2022-12-27T16:48:19.408Z,100554.75
2022-12-27T16:50:47.604Z,100562.72
2022-12-27T16:53:16.060Z,100570.66
2022-12-27T16:55:43.842Z,100569.72
2022-12-27T16:58:11.772Z,100556.47
2022-12-27T17:00:39.957Z,100560.94
2022-12-27T17:03:08.373Z,100565.38
2022-12-27T17:05:36.948Z,100567.19
2022-12-27T17:08:04.867Z,100561.97
2022-12-27T17:10:32.804Z,100568.28
2022-12-27T17:13:01.154Z,100560.59
2022-12-27T17:15:29.134Z,100562.66
2022-12-27T17:17:57.372Z,100561.28
2022-12-27T17:20:25.721Z,100559.09
2022-12-27T17:22:53.524Z,100553.31
2022-12-27T17:25:23.095Z,100554.59
2022-12-27T17:27:51.377Z,100556.63
2022-12-27T17:30:19.551Z,100559.63
2022-12-27T17:32:47.363Z,100557.16
2022-12-27T17:35:15.880Z,100565.16
2022-12-27T17:37:43.643Z,100555.53
2022-12-27T17:40:11.656Z,100545.13
2022-12-27T17:42:57.261Z,100542.63
2022-12-27T17:45:25.180Z,100548.16
2022-12-27T17:47:53.062Z,100545.53
2022-12-27T17:50:21.373Z,100532.53
2022-12-27T17:53:10.000Z,100543.31
2022-12-27T17:55:58.677Z,100543.47
2022-12-27T17:58:26.554Z,100545.34
2022-12-27T18:00:54.835Z,100534.06
2022-12-27T18:03:23.309Z,100544.06
2022-12-27T18:05:51.271Z,100550.34
2022-12-27T18:08:19.077Z,100542.78
2022-12-27T18:10:47.047Z,100542.16
2022-12-27T18:13:14.887Z,100552.13
2022-12-27T18:15:42.973Z,100542.75
2022-12-27T18:18:10.938Z,100537.63
2022-12-27T18:20:38.837Z,100537.88
2022-12-27T18:23:06.997Z,100536.06
2022-12-27T18:25:36.923Z,100537.00
2022-12-27T18:28:05.201Z,100524.78
2022-12-27T18:30:33.101Z,100532.03
2022-12-27T18:33:01.008Z,100526.91
2022-12-27T18:35:28.818Z,100522.72
2022-12-27T18:37:58.176Z,100514.97
2022-12-27T18:40:26.558Z,100516.84
2022-12-27T18:42:54.728Z,100519.72
2022-12-27T18:45:22.576Z,100504.00
2022-12-27T18:47:50.578Z,100511.19
2022-12-27T18:50:18.823Z,100517.47
2022-12-27T18:52:51.218Z,100508.84
2022-12-27T18:55:24.148Z,100497.50
2022-12-27T18:57:52.024Z,100498.34
2022-12-27T19:00:21.759Z,100501.78
2022-12-27T19:02:50.279Z,100500.91
2022-12-27T19:05:18.312Z,100498.28
2022-12-27T19:07:46.178Z,100501.09
2022-12-27T19:10:14.229Z,100494.09
2022-12-27T19:12:42.289Z,100482.81
2022-12-27T19:15:10.497Z,100495.25
2022-12-27T19:17:38.417Z,100489.19
2022-12-27T19:20:06.337Z,100492.91
2022-12-27T19:22:34.103Z,100498.44
2022-12-27T19:25:02.155Z,100502.03
2022-12-27T19:27:30.304Z,100488.13
2022-12-27T19:29:58.190Z,100492.56
2022-12-27T19:32:26.356Z,100496.22
2022-12-27T19:34:54.916Z,100474.22
2022-12-27T19:37:23.162Z,100476.09
2022-12-27T19:39:51.465Z,100471.66
2022-12-27T19:42:19.872Z,100470.03
2022-12-27T19:44:47.834Z,100480.81
2022-12-27T19:47:16.088Z,100465.69
2022-12-27T19:49:45.177Z,100456.91
2022-12-27T19:52:13.819Z,100454.25
2022-12-27T19:54:41.915Z,100448.16
2022-12-27T19:57:09.808Z,100450.94
2022-12-27T19:59:37.590Z,100441.31
2022-12-27T20:02:06.233Z,100436.03
2022-12-27T20:04:34.577Z,100437.84
2022-12-27T20:07:02.499Z,100436.97
2022-12-27T20:09:30.598Z,100449.25
2022-12-27T20:11:58.560Z,100440.47
2022-12-27T20:14:26.809Z,100445.91
2022-12-27T20:16:55.181Z,100442.25
2022-12-27T20:19:24.023Z,100451.81
2022-12-27T20:21:51.875Z,100443.91
2022-12-27T20:24:19.881Z,100426.16
2022-12-27T20:26:49.547Z,100424.53
2022-12-27T20:29:17.722Z,100427.16
2022-12-27T20:31:48.924Z,100424.47
2022-12-27T20:34:16.798Z,100419.19
2022-12-27T20:36:44.942Z,100416.53
2022-12-27T20:39:13.084Z,100419.34
2022-12-27T20:41:41.313Z,100425.47
2022-12-27T20:44:09.153Z,100415.84
2022-12-27T20:46:37.138Z,100415.06
2022-12-27T20:49:05.003Z,100413.44
2022-12-27T20:51:33.682Z,100410.88
2022-12-27T20:54:02.172Z,100398.59
2022-12-27T20:56:29.980Z,100400.47
2022-12-27T20:58:57.702Z,100402.34
2022-12-27T21:01:25.823Z,100404.06
2022-12-27T21:03:54.083Z,100387.28
2022-12-27T21:06:22.341Z,100382.16
2022-12-27T21:08:56.372Z,100388.97
2022-12-27T21:11:26.929Z,100395.03
2022-12-27T21:13:55.311Z,100384.44
2022-12-27T21:16:23.723Z,100386.34
2022-12-27T21:18:51.613Z,100382.75
2022-12-27T21:21:19.908Z,100373.13
2022-12-27T21:23:47.956Z,100369.78
2022-12-27T21:26:15.943Z,100369.97
2022-12-27T21:28:44.316Z,100360.59
2022-12-27T21:31:12.208Z,100353.75
2022-12-27T21:33:40.294Z,100370.75
2022-12-27T21:36:08.355Z,100362.03
2022-12-27T21:38:36.262Z,100351.59
2022-12-27T21:41:04.450Z,100367.44
2022-12-27T21:43:32.340Z,100354.22
2022-12-27T21:46:00.189Z,100354.22
2022-12-27T21:48:28.052Z,100353.22
2022-12-27T21:50:55.898Z,100339.06
2022-12-27T21:53:25.019Z,100328.50
2022-12-27T21:55:53.072Z,100348.63
2022-12-27T21:58:21.012Z,100336.19
2022-12-27T22:00:48.877Z,100333.56
2022-12-27T22:03:17.187Z,100327.41
2022-12-27T22:05:45.396Z,100324.69
2022-12-27T22:08:13.088Z,100326.31
2022-12-27T22:10:40.867Z,100321.88
2022-12-27T22:13:08.760Z,100319.16
2022-12-27T22:15:36.513Z,100319.84
2022-12-27T22:18:04.306Z,100309.09
2022-12-27T22:20:32.222Z,100307.25
2022-12-27T22:22:59.979Z,100296.59
2022-12-27T22:25:27.698Z,100296.53
2022-12-27T22:27:55.873Z,100295.50
2022-12-27T22:30:24.927Z,100290.16
2022-12-27T22:32:52.710Z,100292.63
2022-12-27T22:35:20.456Z,100287.00
2022-12-27T22:37:48.501Z,100267.56
2022-12-27T22:40:31.012Z,100265.81
2022-12-27T22:43:04.565Z,100267.53
2022-12-27T22:45:32.407Z,100277.03
2022-12-27T22:48:00.000Z,100273.38
2022-12-27T22:50:27.914Z,100264.50
2022-12-27T22:52:55.796Z,100256.69
2022-12-27T22:55:25.391Z,100266.47
2022-12-27T22:57:53.676Z,100246.28
2022-12-27T23:00:21.535Z,100262.13
2022-12-27T23:02:49.472Z,100224.31
2022-12-27T23:05:17.300Z,100231.38
2022-12-27T23:08:05.938Z,100228.72
2022-12-27T23:10:33.380Z,100221.56
2022-12-27T23:13:01.487Z,100211.00
2022-12-27T23:15:29.363Z,100225.06
2022-12-27T23:17:57.393Z,100209.13
2022-12-27T23:20:25.039Z,100206.50
2022-12-27T23:22:52.806Z,100196.88
2022-12-27T23:25:20.725Z,100195.94
2022-12-27T23:27:48.484Z,100191.59
2022-12-27T23:30:16.586Z,100179.28
2022-12-27T23:32:44.317Z,100168.72
2022-12-27T23:35:11.985Z,100159.75
2022-12-27T23:37:39.770Z,100141.19
2022-12-27T23:40:07.839Z,100142.91
2022-12-27T23:42:35.914Z,100141.94
2022-12-27T23:45:03.526Z,100151.69
2022-12-27T23:47:31.205Z,100140.25
2022-12-27T23:49:59.012Z,100141.94
2022-12-27T23:52:26.622Z,100126.97
2022-12-27T23:54:54.339Z,100121.59
2022-12-27T23:57:22.706Z,100116.03
2022-12-27T23:59:51.382Z,100105.28
